Airfield :







YOU CAN JOIN US ON...

 
LOGIN :

Register | Disclaimer

   EN    FR    IT 

 









Legend :    VFR   Marginal VFR   IFR   Intensive IFR   Very Intensive IFR
Visi :
Ceiling :
>= 8 km
>= 3000ft
5 to 8 km
1000 to 3000 ft
1500m to 5 km
500 to 1000 ft
800 to 1500m
200 to 500 ft
< 800m
< 200 ft
Symbols :   Thunderstorms  Fog  Heavy snow  Heavy precipitations  Wind > 20 kt






- Airport Elevation : 489 ft


KHUL - Houlton International

CURRENT METAR :
  • 170253Z AUTO 20003KT 10SM CLR M04/M08 A2994 RMK AO2 SLP149 T10391078 58001

EXPIRED METARs :
  • 170153Z AUTO 22004KT 10SM OVC055 M02/M07 A2995 RMK AO2 SLP152 T10221072
  • 170053Z AUTO 21003KT 10SM OVC050 M02/M07 A2996 RMK AO2 SLP154 T10171067

TAF KHUL
Valid from the 17 at 00:00 until the 18 at 00:00 UTC


162320Z 1700/1724 22005KT P6SM VCSH BKN045
FM170500 00000KT P6SM BKN045
FM171000 00000KT P6SM BKN030
FM171300 28003KT P6SM BKN050
FM172100 33008KT P6SM SCT070



MET'MAP, your aeronautical weather chart ! - Copyright ORBIFLY December 2007 - Disclaimer

ORBIFLY MET'MAP TEAM :

Programming & Development : Alexandra Zaïnal
Concept & original design : Baudouin d'Aumeries
Assistance for programming : Marc-Olivier Méhu
Technical & hardware support : Manuel Goepfert

Contact : metmap@orbifly.com




SOURCES & CREDITS :

   NOAA